sensor_id;sensor_type;location;lat;lon;timestamp;P1;durP1;ratioP1;P2;durP2;ratioP2
18931;SDS011;9598;50.954;3.112;2023-05-18T00:03:30;13.32;;;3.58;;
18931;SDS011;9598;50.954;3.112;2023-05-18T00:08:33;9.05;;;3.47;;
18931;SDS011;9598;50.954;3.112;2023-05-18T00:13:37;6.60;;;3.33;;
18931;SDS011;9598;50.954;3.112;2023-05-18T00:18:39;6.30;;;3.38;;
18931;SDS011;9598;50.954;3.112;2023-05-18T00:23:41;11.77;;;3.97;;
18931;SDS011;9598;50.954;3.112;2023-05-18T00:28:50;9.00;;;3.92;;
18931;SDS011;9598;50.954;3.112;2023-05-18T00:33:52;9.50;;;3.70;;
18931;SDS011;9598;50.954;3.112;2023-05-18T00:38:54;7.88;;;3.72;;
18931;SDS011;9598;50.954;3.112;2023-05-18T00:43:57;6.68;;;4.30;;
18931;SDS011;9598;50.954;3.112;2023-05-18T00:48:59;10.07;;;4.30;;
18931;SDS011;9598;50.954;3.112;2023-05-18T00:54:02;7.10;;;3.65;;
18931;SDS011;9598;50.954;3.112;2023-05-18T00:59:06;8.75;;;4.10;;
18931;SDS011;9598;50.954;3.112;2023-05-18T01:04:11;8.90;;;4.10;;
18931;SDS011;9598;50.954;3.112;2023-05-18T01:09:14;11.10;;;3.80;;
18931;SDS011;9598;50.954;3.112;2023-05-18T01:14:18;11.02;;;4.82;;
18931;SDS011;9598;50.954;3.112;2023-05-18T01:19:35;12.07;;;5.07;;
18931;SDS011;9598;50.954;3.112;2023-05-18T01:24:57;8.88;;;4.63;;
18931;SDS011;9598;50.954;3.112;2023-05-18T01:30:06;7.72;;;4.45;;
18931;SDS011;9598;50.954;3.112;2023-05-18T01:35:09;10.27;;;4.78;;
18931;SDS011;9598;50.954;3.112;2023-05-18T01:40:11;8.80;;;4.55;;
18931;SDS011;9598;50.954;3.112;2023-05-18T01:45:18;9.32;;;4.65;;
18931;SDS011;9598;50.954;3.112;2023-05-18T01:50:27;9.45;;;4.95;;
18931;SDS011;9598;50.954;3.112;2023-05-18T01:55:36;6.43;;;4.93;;
18931;SDS011;9598;50.954;3.112;2023-05-18T02:00:42;9.90;;;5.50;;
18931;SDS011;9598;50.954;3.112;2023-05-18T02:05:45;10.63;;;5.65;;
18931;SDS011;9598;50.954;3.112;2023-05-18T02:10:47;10.45;;;5.82;;
18931;SDS011;9598;50.954;3.112;2023-05-18T02:15:51;10.77;;;5.18;;
18931;SDS011;9598;50.954;3.112;2023-05-18T02:20:56;9.95;;;5.75;;
18931;SDS011;9598;50.954;3.112;2023-05-18T02:25:59;8.68;;;5.88;;
18931;SDS011;9598;50.954;3.112;2023-05-18T02:31:06;8.20;;;5.28;;
18931;SDS011;9598;50.954;3.112;2023-05-18T02:36:09;11.40;;;6.13;;
18931;SDS011;9598;50.954;3.112;2023-05-18T02:41:12;6.90;;;5.15;;
18931;SDS011;9598;50.954;3.112;2023-05-18T02:46:16;10.20;;;5.82;;
18931;SDS011;9598;50.954;3.112;2023-05-18T02:51:18;14.63;;;5.55;;
18931;SDS011;9598;50.954;3.112;2023-05-18T02:56:21;7.57;;;5.28;;
18931;SDS011;9598;50.954;3.112;2023-05-18T03:01:35;10.13;;;5.80;;
18931;SDS011;9598;50.954;3.112;2023-05-18T03:06:38;11.35;;;5.50;;
18931;SDS011;9598;50.954;3.112;2023-05-18T03:11:40;9.73;;;5.68;;
18931;SDS011;9598;50.954;3.112;2023-05-18T03:16:44;10.18;;;5.75;;
18931;SDS011;9598;50.954;3.112;2023-05-18T03:21:49;9.50;;;5.95;;
18931;SDS011;9598;50.954;3.112;2023-05-18T03:26:51;8.25;;;5.72;;
18931;SDS011;9598;50.954;3.112;2023-05-18T03:31:56;6.88;;;5.20;;
18931;SDS011;9598;50.954;3.112;2023-05-18T03:36:59;7.45;;;5.32;;
18931;SDS011;9598;50.954;3.112;2023-05-18T03:42:02;9.43;;;5.60;;
18931;SDS011;9598;50.954;3.112;2023-05-18T03:47:06;9.88;;;5.45;;
18931;SDS011;9598;50.954;3.112;2023-05-18T03:52:08;12.45;;;6.15;;
18931;SDS011;9598;50.954;3.112;2023-05-18T03:57:10;8.75;;;5.70;;
18931;SDS011;9598;50.954;3.112;2023-05-18T04:02:14;10.93;;;5.63;;
18931;SDS011;9598;50.954;3.112;2023-05-18T04:07:16;6.45;;;5.20;;
18931;SDS011;9598;50.954;3.112;2023-05-18T04:12:21;11.23;;;6.10;;
18931;SDS011;9598;50.954;3.112;2023-05-18T04:17:24;9.13;;;6.35;;
18931;SDS011;9598;50.954;3.112;2023-05-18T04:22:26;9.77;;;5.68;;
18931;SDS011;9598;50.954;3.112;2023-05-18T04:27:30;8.00;;;5.47;;
18931;SDS011;9598;50.954;3.112;2023-05-18T04:32:34;7.90;;;5.25;;
18931;SDS011;9598;50.954;3.112;2023-05-18T04:37:36;9.85;;;5.53;;
18931;SDS011;9598;50.954;3.112;2023-05-18T04:42:43;9.48;;;5.03;;
18931;SDS011;9598;50.954;3.112;2023-05-18T04:47:48;10.50;;;5.57;;
18931;SDS011;9598;50.954;3.112;2023-05-18T04:52:54;9.15;;;4.95;;
18931;SDS011;9598;50.954;3.112;2023-05-18T04:57:59;8.48;;;4.82;;
18931;SDS011;9598;50.954;3.112;2023-05-18T05:03:03;8.60;;;4.93;;
18931;SDS011;9598;50.954;3.112;2023-05-18T05:08:06;7.40;;;4.95;;
18931;SDS011;9598;50.954;3.112;2023-05-18T05:13:08;11.20;;;5.32;;
18931;SDS011;9598;50.954;3.112;2023-05-18T05:18:12;7.55;;;5.07;;
18931;SDS011;9598;50.954;3.112;2023-05-18T05:23:14;8.90;;;5.47;;
18931;SDS011;9598;50.954;3.112;2023-05-18T05:28:18;8.75;;;5.13;;
18931;SDS011;9598;50.954;3.112;2023-05-18T05:33:22;10.77;;;4.95;;
18931;SDS011;9598;50.954;3.112;2023-05-18T05:38:25;8.95;;;5.20;;
18931;SDS011;9598;50.954;3.112;2023-05-18T05:43:27;12.10;;;4.60;;
18931;SDS011;9598;50.954;3.112;2023-05-18T05:48:30;9.00;;;4.88;;
18931;SDS011;9598;50.954;3.112;2023-05-18T05:53:33;8.20;;;5.07;;
18931;SDS011;9598;50.954;3.112;2023-05-18T05:58:35;7.43;;;4.68;;
18931;SDS011;9598;50.954;3.112;2023-05-18T06:03:38;9.77;;;5.18;;
18931;SDS011;9598;50.954;3.112;2023-05-18T06:08:42;9.98;;;6.05;;
18931;SDS011;9598;50.954;3.112;2023-05-18T06:13:44;10.80;;;7.50;;
18931;SDS011;9598;50.954;3.112;2023-05-18T06:18:48;10.02;;;6.47;;
18931;SDS011;9598;50.954;3.112;2023-05-18T06:23:50;10.57;;;6.35;;
18931;SDS011;9598;50.954;3.112;2023-05-18T06:29:10;10.32;;;6.97;;
18931;SDS011;9598;50.954;3.112;2023-05-18T06:34:37;10.90;;;7.60;;
18931;SDS011;9598;50.954;3.112;2023-05-18T06:39:39;10.60;;;7.80;;
18931;SDS011;9598;50.954;3.112;2023-05-18T06:44:42;11.70;;;8.38;;
18931;SDS011;9598;50.954;3.112;2023-05-18T06:49:51;12.30;;;8.18;;
18931;SDS011;9598;50.954;3.112;2023-05-18T06:54:54;12.23;;;7.68;;
18931;SDS011;9598;50.954;3.112;2023-05-18T06:59:56;10.90;;;7.32;;
18931;SDS011;9598;50.954;3.112;2023-05-18T07:05:00;12.77;;;9.40;;
18931;SDS011;9598;50.954;3.112;2023-05-18T07:10:05;14.05;;;8.70;;
18931;SDS011;9598;50.954;3.112;2023-05-18T07:15:08;13.40;;;9.45;;
18931;SDS011;9598;50.954;3.112;2023-05-18T07:20:12;16.63;;;10.32;;
18931;SDS011;9598;50.954;3.112;2023-05-18T07:25:14;13.82;;;8.40;;
18931;SDS011;9598;50.954;3.112;2023-05-18T07:30:17;12.63;;;8.20;;
18931;SDS011;9598;50.954;3.112;2023-05-18T07:35:20;16.20;;;8.88;;
18931;SDS011;9598;50.954;3.112;2023-05-18T07:40:23;14.23;;;9.25;;
18931;SDS011;9598;50.954;3.112;2023-05-18T07:45:25;13.68;;;8.43;;
18931;SDS011;9598;50.954;3.112;2023-05-18T07:50:28;13.88;;;8.52;;
18931;SDS011;9598;50.954;3.112;2023-05-18T07:55:30;11.25;;;7.40;;
18931;SDS011;9598;50.954;3.112;2023-05-18T08:00:33;12.70;;;8.13;;
18931;SDS011;9598;50.954;3.112;2023-05-18T08:05:36;10.70;;;7.72;;
18931;SDS011;9598;50.954;3.112;2023-05-18T08:10:38;9.82;;;7.00;;
18931;SDS011;9598;50.954;3.112;2023-05-18T08:15:41;12.32;;;6.57;;
18931;SDS011;9598;50.954;3.112;2023-05-18T08:20:44;9.55;;;6.47;;
18931;SDS011;9598;50.954;3.112;2023-05-18T08:25:47;14.18;;;7.25;;
18931;SDS011;9598;50.954;3.112;2023-05-18T08:30:49;9.70;;;6.72;;
18931;SDS011;9598;50.954;3.112;2023-05-18T08:35:53;10.30;;;6.57;;
18931;SDS011;9598;50.954;3.112;2023-05-18T08:40:57;13.20;;;6.18;;
18931;SDS011;9598;50.954;3.112;2023-05-18T08:46:06;9.98;;;6.57;;
18931;SDS011;9598;50.954;3.112;2023-05-18T08:51:16;12.90;;;6.97;;
18931;SDS011;9598;50.954;3.112;2023-05-18T08:56:21;10.15;;;6.15;;
18931;SDS011;9598;50.954;3.112;2023-05-18T09:01:24;12.75;;;6.90;;
18931;SDS011;9598;50.954;3.112;2023-05-18T09:06:29;11.32;;;6.30;;
18931;SDS011;9598;50.954;3.112;2023-05-18T09:11:33;12.57;;;7.05;;
18931;SDS011;9598;50.954;3.112;2023-05-18T09:16:35;12.57;;;7.68;;
18931;SDS011;9598;50.954;3.112;2023-05-18T09:21:39;13.80;;;7.15;;
18931;SDS011;9598;50.954;3.112;2023-05-18T09:26:41;11.30;;;6.53;;
18931;SDS011;9598;50.954;3.112;2023-05-18T09:31:43;7.85;;;6.57;;
18931;SDS011;9598;50.954;3.112;2023-05-18T09:36:48;12.95;;;6.82;;
18931;SDS011;9598;50.954;3.112;2023-05-18T09:41:55;8.85;;;6.65;;
18931;SDS011;9598;50.954;3.112;2023-05-18T09:46:57;11.55;;;6.05;;
18931;SDS011;9598;50.954;3.112;2023-05-18T09:52:00;9.88;;;5.70;;
18931;SDS011;9598;50.954;3.112;2023-05-18T09:57:03;8.52;;;5.05;;
18931;SDS011;9598;50.954;3.112;2023-05-18T10:02:06;8.68;;;5.45;;
18931;SDS011;9598;50.954;3.112;2023-05-18T10:07:13;8.57;;;5.03;;
18931;SDS011;9598;50.954;3.112;2023-05-18T10:12:16;13.07;;;7.18;;
18931;SDS011;9598;50.954;3.112;2023-05-18T10:17:21;7.93;;;5.20;;
18931;SDS011;9598;50.954;3.112;2023-05-18T10:22:26;8.52;;;5.10;;
18931;SDS011;9598;50.954;3.112;2023-05-18T10:27:29;10.13;;;5.45;;
18931;SDS011;9598;50.954;3.112;2023-05-18T10:32:36;10.02;;;5.30;;
18931;SDS011;9598;50.954;3.112;2023-05-18T10:37:42;13.55;;;5.28;;
18931;SDS011;9598;50.954;3.112;2023-05-18T10:42:47;9.70;;;4.72;;
18931;SDS011;9598;50.954;3.112;2023-05-18T10:47:51;8.73;;;4.47;;
18931;SDS011;9598;50.954;3.112;2023-05-18T10:52:55;9.18;;;5.45;;
18931;SDS011;9598;50.954;3.112;2023-05-18T10:58:00;11.45;;;5.35;;
18931;SDS011;9598;50.954;3.112;2023-05-18T11:03:06;10.55;;;5.30;;
18931;SDS011;9598;50.954;3.112;2023-05-18T11:08:13;8.52;;;5.10;;
18931;SDS011;9598;50.954;3.112;2023-05-18T11:13:27;9.38;;;4.85;;
18931;SDS011;9598;50.954;3.112;2023-05-18T11:18:37;10.13;;;5.35;;
18931;SDS011;9598;50.954;3.112;2023-05-18T11:23:42;9.60;;;5.60;;
18931;SDS011;9598;50.954;3.112;2023-05-18T11:28:47;11.13;;;6.10;;
18931;SDS011;9598;50.954;3.112;2023-05-18T11:33:53;10.40;;;5.75;;
18931;SDS011;9598;50.954;3.112;2023-05-18T11:39:02;8.77;;;5.50;;
18931;SDS011;9598;50.954;3.112;2023-05-18T11:44:16;7.82;;;5.18;;
18931;SDS011;9598;50.954;3.112;2023-05-18T11:49:21;11.68;;;5.45;;
18931;SDS011;9598;50.954;3.112;2023-05-18T11:54:26;8.52;;;5.63;;
18931;SDS011;9598;50.954;3.112;2023-05-18T11:59:30;6.45;;;4.55;;
18931;SDS011;9598;50.954;3.112;2023-05-18T12:04:33;6.95;;;4.57;;
18931;SDS011;9598;50.954;3.112;2023-05-18T12:09:40;10.20;;;5.20;;
18931;SDS011;9598;50.954;3.112;2023-05-18T12:14:43;6.93;;;4.18;;
18931;SDS011;9598;50.954;3.112;2023-05-18T12:19:47;8.20;;;5.07;;
18931;SDS011;9598;50.954;3.112;2023-05-18T12:24:51;6.90;;;4.78;;
18931;SDS011;9598;50.954;3.112;2023-05-18T12:29:53;6.72;;;4.07;;
18931;SDS011;9598;50.954;3.112;2023-05-18T12:34:56;8.52;;;5.47;;
18931;SDS011;9598;50.954;3.112;2023-05-18T12:40:01;7.13;;;4.80;;
18931;SDS011;9598;50.954;3.112;2023-05-18T12:45:04;9.75;;;5.28;;
18931;SDS011;9598;50.954;3.112;2023-05-18T12:50:07;7.60;;;4.95;;
18931;SDS011;9598;50.954;3.112;2023-05-18T12:55:16;8.10;;;5.07;;
18931;SDS011;9598;50.954;3.112;2023-05-18T13:00:20;6.30;;;4.13;;
18931;SDS011;9598;50.954;3.112;2023-05-18T13:05:23;6.00;;;4.90;;
18931;SDS011;9598;50.954;3.112;2023-05-18T13:10:29;9.18;;;5.57;;
18931;SDS011;9598;50.954;3.112;2023-05-18T13:15:32;9.30;;;5.30;;
18931;SDS011;9598;50.954;3.112;2023-05-18T13:20:38;8.52;;;6.25;;
18931;SDS011;9598;50.954;3.112;2023-05-18T13:25:42;8.88;;;6.57;;
18931;SDS011;9598;50.954;3.112;2023-05-18T13:30:45;11.10;;;5.85;;
18931;SDS011;9598;50.954;3.112;2023-05-18T13:35:48;8.60;;;5.72;;
18931;SDS011;9598;50.954;3.112;2023-05-18T13:40:54;8.32;;;5.63;;
18931;SDS011;9598;50.954;3.112;2023-05-18T13:45:56;7.70;;;6.40;;
18931;SDS011;9598;50.954;3.112;2023-05-18T13:50:58;8.65;;;5.88;;
18931;SDS011;9598;50.954;3.112;2023-05-18T13:56:01;8.63;;;5.30;;
18931;SDS011;9598;50.954;3.112;2023-05-18T14:01:04;9.77;;;6.70;;
18931;SDS011;9598;50.954;3.112;2023-05-18T14:06:08;9.15;;;6.03;;
18931;SDS011;9598;50.954;3.112;2023-05-18T14:11:11;8.88;;;7.28;;
18931;SDS011;9598;50.954;3.112;2023-05-18T14:16:13;9.95;;;7.85;;
18931;SDS011;9598;50.954;3.112;2023-05-18T14:21:16;10.00;;;7.53;;
18931;SDS011;9598;50.954;3.112;2023-05-18T14:26:19;8.68;;;7.85;;
18931;SDS011;9598;50.954;3.112;2023-05-18T14:31:21;7.75;;;6.95;;
18931;SDS011;9598;50.954;3.112;2023-05-18T14:36:23;9.75;;;7.22;;
18931;SDS011;9598;50.954;3.112;2023-05-18T14:41:27;9.25;;;7.13;;
18931;SDS011;9598;50.954;3.112;2023-05-18T14:46:29;9.93;;;6.70;;
18931;SDS011;9598;50.954;3.112;2023-05-18T14:51:31;8.48;;;6.63;;
18931;SDS011;9598;50.954;3.112;2023-05-18T14:56:34;9.32;;;5.75;;
18931;SDS011;9598;50.954;3.112;2023-05-18T15:01:37;9.55;;;7.60;;
18931;SDS011;9598;50.954;3.112;2023-05-18T15:06:39;10.98;;;7.80;;
18931;SDS011;9598;50.954;3.112;2023-05-18T15:11:43;9.55;;;6.63;;
18931;SDS011;9598;50.954;3.112;2023-05-18T15:16:45;8.98;;;6.38;;
18931;SDS011;9598;50.954;3.112;2023-05-18T15:21:47;9.00;;;6.15;;
18931;SDS011;9598;50.954;3.112;2023-05-18T15:26:51;11.13;;;6.45;;
18931;SDS011;9598;50.954;3.112;2023-05-18T15:31:53;9.75;;;6.53;;
18931;SDS011;9598;50.954;3.112;2023-05-18T15:36:55;7.78;;;5.95;;
18931;SDS011;9598;50.954;3.112;2023-05-18T15:41:59;8.75;;;6.60;;
18931;SDS011;9598;50.954;3.112;2023-05-18T15:47:01;7.88;;;5.93;;
18931;SDS011;9598;50.954;3.112;2023-05-18T15:52:04;8.82;;;5.68;;
18931;SDS011;9598;50.954;3.112;2023-05-18T15:57:08;9.68;;;6.28;;
18931;SDS011;9598;50.954;3.112;2023-05-18T16:02:10;9.50;;;6.97;;
18931;SDS011;9598;50.954;3.112;2023-05-18T16:07:12;10.07;;;6.80;;
18931;SDS011;9598;50.954;3.112;2023-05-18T16:12:16;11.32;;;7.35;;
18931;SDS011;9598;50.954;3.112;2023-05-18T16:17:18;11.13;;;7.30;;
18931;SDS011;9598;50.954;3.112;2023-05-18T16:22:20;8.93;;;6.53;;
18931;SDS011;9598;50.954;3.112;2023-05-18T16:27:23;10.30;;;5.47;;
18931;SDS011;9598;50.954;3.112;2023-05-18T16:32:25;11.13;;;5.07;;
18931;SDS011;9598;50.954;3.112;2023-05-18T16:37:27;10.88;;;5.43;;
18931;SDS011;9598;50.954;3.112;2023-05-18T16:42:31;8.68;;;5.93;;
18931;SDS011;9598;50.954;3.112;2023-05-18T16:47:33;10.85;;;5.28;;
18931;SDS011;9598;50.954;3.112;2023-05-18T16:52:35;11.07;;;5.70;;
18931;SDS011;9598;50.954;3.112;2023-05-18T16:57:38;11.65;;;5.78;;
18931;SDS011;9598;50.954;3.112;2023-05-18T17:02:42;10.43;;;5.68;;
18931;SDS011;9598;50.954;3.112;2023-05-18T17:07:44;11.10;;;5.88;;
18931;SDS011;9598;50.954;3.112;2023-05-18T17:12:48;8.52;;;5.18;;
18931;SDS011;9598;50.954;3.112;2023-05-18T17:17:50;9.27;;;5.63;;
18931;SDS011;9598;50.954;3.112;2023-05-18T17:22:54;11.90;;;5.47;;
18931;SDS011;9598;50.954;3.112;2023-05-18T17:27:58;10.77;;;6.47;;
18931;SDS011;9598;50.954;3.112;2023-05-18T17:33:00;11.85;;;6.40;;
18931;SDS011;9598;50.954;3.112;2023-05-18T17:38:02;10.77;;;6.13;;
18931;SDS011;9598;50.954;3.112;2023-05-18T17:43:05;12.27;;;6.35;;
18931;SDS011;9598;50.954;3.112;2023-05-18T17:48:07;12.18;;;6.30;;
18931;SDS011;9598;50.954;3.112;2023-05-18T17:53:10;10.70;;;6.18;;
18931;SDS011;9598;50.954;3.112;2023-05-18T17:58:13;12.27;;;6.45;;
18931;SDS011;9598;50.954;3.112;2023-05-18T18:03:15;10.63;;;5.55;;
18931;SDS011;9598;50.954;3.112;2023-05-18T18:08:19;8.90;;;5.75;;
18931;SDS011;9598;50.954;3.112;2023-05-18T18:13:22;10.48;;;5.88;;
18931;SDS011;9598;50.954;3.112;2023-05-18T18:18:25;11.18;;;5.68;;
18931;SDS011;9598;50.954;3.112;2023-05-18T18:23:27;10.55;;;5.60;;
18931;SDS011;9598;50.954;3.112;2023-05-18T18:28:30;13.02;;;6.25;;
18931;SDS011;9598;50.954;3.112;2023-05-18T18:33:33;10.63;;;5.53;;
18931;SDS011;9598;50.954;3.112;2023-05-18T18:38:36;11.48;;;6.03;;
18931;SDS011;9598;50.954;3.112;2023-05-18T18:43:39;11.88;;;4.88;;
18931;SDS011;9598;50.954;3.112;2023-05-18T18:48:41;10.90;;;5.30;;
18931;SDS011;9598;50.954;3.112;2023-05-18T18:53:43;11.73;;;5.57;;
18931;SDS011;9598;50.954;3.112;2023-05-18T18:58:47;13.48;;;5.97;;
18931;SDS011;9598;50.954;3.112;2023-05-18T19:03:49;10.93;;;5.60;;
18931;SDS011;9598;50.954;3.112;2023-05-18T19:08:52;12.00;;;6.35;;
18931;SDS011;9598;50.954;3.112;2023-05-18T19:13:56;13.07;;;6.35;;
18931;SDS011;9598;50.954;3.112;2023-05-18T19:18:58;11.05;;;6.10;;
18931;SDS011;9598;50.954;3.112;2023-05-18T19:24:07;12.07;;;6.68;;
18931;SDS011;9598;50.954;3.112;2023-05-18T19:29:11;11.40;;;5.50;;
18931;SDS011;9598;50.954;3.112;2023-05-18T19:34:13;7.32;;;5.78;;
18931;SDS011;9598;50.954;3.112;2023-05-18T19:39:16;12.63;;;5.95;;
18931;SDS011;9598;50.954;3.112;2023-05-18T19:44:20;10.27;;;6.45;;
18931;SDS011;9598;50.954;3.112;2023-05-18T19:49:22;10.95;;;6.30;;
18931;SDS011;9598;50.954;3.112;2023-05-18T19:54:24;12.65;;;5.93;;
18931;SDS011;9598;50.954;3.112;2023-05-18T19:59:28;8.23;;;5.63;;
18931;SDS011;9598;50.954;3.112;2023-05-18T20:04:30;12.30;;;5.82;;
18931;SDS011;9598;50.954;3.112;2023-05-18T20:09:33;11.50;;;6.22;;
18931;SDS011;9598;50.954;3.112;2023-05-18T20:14:37;11.38;;;6.78;;
18931;SDS011;9598;50.954;3.112;2023-05-18T20:19:42;7.85;;;5.93;;
18931;SDS011;9598;50.954;3.112;2023-05-18T20:24:49;13.10;;;6.00;;
18931;SDS011;9598;50.954;3.112;2023-05-18T20:29:53;13.23;;;6.38;;
18931;SDS011;9598;50.954;3.112;2023-05-18T20:34:55;8.80;;;6.10;;
18931;SDS011;9598;50.954;3.112;2023-05-18T20:39:57;12.25;;;6.78;;
18931;SDS011;9598;50.954;3.112;2023-05-18T20:45:02;9.32;;;6.38;;
18931;SDS011;9598;50.954;3.112;2023-05-18T20:50:05;10.00;;;6.75;;
18931;SDS011;9598;50.954;3.112;2023-05-18T20:55:08;9.85;;;6.40;;
18931;SDS011;9598;50.954;3.112;2023-05-18T21:00:13;13.15;;;6.97;;
18931;SDS011;9598;50.954;3.112;2023-05-18T21:05:15;8.30;;;6.68;;
18931;SDS011;9598;50.954;3.112;2023-05-18T21:10:17;9.23;;;7.25;;
18931;SDS011;9598;50.954;3.112;2023-05-18T21:15:21;10.45;;;7.05;;
18931;SDS011;9598;50.954;3.112;2023-05-18T21:20:23;9.85;;;6.40;;
18931;SDS011;9598;50.954;3.112;2023-05-18T21:25:26;7.53;;;6.80;;
18931;SDS011;9598;50.954;3.112;2023-05-18T21:30:30;11.13;;;7.22;;
18931;SDS011;9598;50.954;3.112;2023-05-18T21:35:32;10.52;;;7.93;;
18931;SDS011;9598;50.954;3.112;2023-05-18T21:40:34;14.68;;;7.40;;
18931;SDS011;9598;50.954;3.112;2023-05-18T21:45:38;14.50;;;7.90;;
18931;SDS011;9598;50.954;3.112;2023-05-18T21:50:40;11.00;;;8.20;;
18931;SDS011;9598;50.954;3.112;2023-05-18T21:55:42;10.95;;;7.40;;
18931;SDS011;9598;50.954;3.112;2023-05-18T22:00:46;10.45;;;6.97;;
18931;SDS011;9598;50.954;3.112;2023-05-18T22:05:49;10.27;;;7.57;;
18931;SDS011;9598;50.954;3.112;2023-05-18T22:10:51;13.23;;;7.35;;
18931;SDS011;9598;50.954;3.112;2023-05-18T22:15:55;12.65;;;8.82;;
18931;SDS011;9598;50.954;3.112;2023-05-18T22:20:57;9.18;;;8.25;;
18931;SDS011;9598;50.954;3.112;2023-05-18T22:25:59;9.55;;;7.65;;
18931;SDS011;9598;50.954;3.112;2023-05-18T22:31:02;11.50;;;8.73;;
18931;SDS011;9598;50.954;3.112;2023-05-18T22:36:05;12.00;;;8.57;;
18931;SDS011;9598;50.954;3.112;2023-05-18T22:41:08;12.45;;;8.80;;
18931;SDS011;9598;50.954;3.112;2023-05-18T22:46:11;11.48;;;8.40;;
18931;SDS011;9598;50.954;3.112;2023-05-18T22:51:14;14.30;;;9.13;;
18931;SDS011;9598;50.954;3.112;2023-05-18T22:56:17;15.13;;;9.07;;
18931;SDS011;9598;50.954;3.112;2023-05-18T23:01:22;13.23;;;8.90;;
18931;SDS011;9598;50.954;3.112;2023-05-18T23:06:24;13.02;;;9.23;;
18931;SDS011;9598;50.954;3.112;2023-05-18T23:11:26;12.50;;;8.82;;
18931;SDS011;9598;50.954;3.112;2023-05-18T23:16:31;11.82;;;9.90;;
18931;SDS011;9598;50.954;3.112;2023-05-18T23:21:33;11.05;;;9.73;;
18931;SDS011;9598;50.954;3.112;2023-05-18T23:26:35;12.00;;;9.35;;
18931;SDS011;9598;50.954;3.112;2023-05-18T23:31:39;10.95;;;8.90;;
18931;SDS011;9598;50.954;3.112;2023-05-18T23:36:41;15.40;;;9.73;;
18931;SDS011;9598;50.954;3.112;2023-05-18T23:41:45;12.38;;;9.48;;
18931;SDS011;9598;50.954;3.112;2023-05-18T23:46:50;12.90;;;9.05;;
18931;SDS011;9598;50.954;3.112;2023-05-18T23:51:52;11.02;;;9.65;;
18931;SDS011;9598;50.954;3.112;2023-05-18T23:56:55;13.43;;;9.50;;
